createdAt,value
2023-03-27T00:00:16.791Z,145515.91
2023-03-27T00:01:19.712Z,145465.44
2023-03-27T00:02:23.387Z,145460.63
2023-03-27T00:03:28.702Z,145505.13
2023-03-27T00:04:31.233Z,145482.25
2023-03-27T00:05:33.746Z,145463.03
2023-03-27T00:06:36.260Z,145465.44
2023-03-27T00:07:41.391Z,145464.25
2023-03-27T00:08:50.663Z,145502.72
2023-03-27T00:09:53.576Z,145477.44
2023-03-27T00:10:56.562Z,145494.31
2023-03-27T00:12:00.993Z,145511.13
2023-03-27T00:13:05.065Z,145497.91
2023-03-27T00:14:07.839Z,145518.31
2023-03-27T00:15:17.407Z,145503.91
2023-03-27T00:16:22.288Z,145507.50
2023-03-27T00:17:24.869Z,145513.50
2023-03-27T00:18:28.372Z,145523.16
2023-03-27T00:19:30.877Z,145503.91
2023-03-27T00:20:37.383Z,145521.97
2023-03-27T00:21:40.599Z,145513.50
2023-03-27T00:22:43.598Z,145484.66
2023-03-27T00:23:46.236Z,145489.50
2023-03-27T00:24:48.760Z,145491.91
2023-03-27T00:25:51.638Z,145494.31
2023-03-27T00:26:55.002Z,145466.66
2023-03-27T00:28:01.247Z,145467.84
2023-03-27T00:29:04.612Z,145445.00
2023-03-27T00:30:07.970Z,145448.59
2023-03-27T00:31:15.541Z,145467.84
2023-03-27T00:32:18.159Z,145410.13
2023-03-27T00:33:20.684Z,145443.78
2023-03-27T00:34:23.202Z,145445.00
2023-03-27T00:35:28.380Z,145442.59
2023-03-27T00:36:31.480Z,145419.72
2023-03-27T00:37:33.885Z,145408.94
2023-03-27T00:38:36.980Z,145408.94
2023-03-27T00:39:40.846Z,145386.09
2023-03-27T00:40:45.189Z,145420.94
2023-03-27T00:41:48.787Z,145393.31
2023-03-27T00:42:52.137Z,145430.59
2023-03-27T00:43:56.446Z,145433.00
2023-03-27T00:44:59.214Z,145443.78
2023-03-27T00:46:25.088Z,145467.84
2023-03-27T00:47:34.142Z,145496.72
2023-03-27T00:48:37.989Z,145477.44
2023-03-27T00:49:40.616Z,145477.44
2023-03-27T00:50:44.454Z,145501.50
2023-03-27T00:51:48.554Z,145501.50
2023-03-27T00:52:57.296Z,145508.72
2023-03-27T00:54:00.892Z,145513.50
2023-03-27T00:55:12.422Z,145548.38
2023-03-27T00:56:16.588Z,145554.44
2023-03-27T00:57:19.977Z,145592.91
2023-03-27T00:58:34.037Z,145643.41
2023-03-27T00:59:40.982Z,145672.28
2023-03-27T01:00:44.103Z,145650.66
2023-03-27T01:01:47.615Z,145665.09
2023-03-27T01:02:50.863Z,145677.09
2023-03-27T01:03:54.959Z,145684.34
2023-03-27T01:04:57.662Z,145684.34
2023-03-27T01:06:04.264Z,145715.63
2023-03-27T01:07:10.268Z,145687.94
2023-03-27T01:08:14.581Z,145669.88
2023-03-27T01:09:21.224Z,145669.88
2023-03-27T01:10:49.264Z,145689.16
2023-03-27T01:12:07.029Z,145708.38
2023-03-27T01:13:20.943Z,145663.88
2023-03-27T01:14:48.066Z,145709.56
2023-03-27T01:16:06.131Z,145684.34
2023-03-27T01:17:36.076Z,145695.16
2023-03-27T01:18:43.511Z,145653.06
2023-03-27T01:19:55.033Z,145662.69
2023-03-27T01:21:13.748Z,145655.47
2023-03-27T01:22:49.753Z,145660.28
2023-03-27T01:24:11.711Z,145654.28
2023-03-27T01:26:12.077Z,145681.94
2023-03-27T01:27:16.287Z,145633.81
2023-03-27T01:28:27.795Z,145675.91
2023-03-27T01:29:36.553Z,145643.41
2023-03-27T01:30:57.036Z,145674.69
2023-03-27T01:32:08.755Z,145671.09
2023-03-27T01:33:17.594Z,145668.69
2023-03-27T01:34:29.243Z,145680.69
2023-03-27T01:35:45.833Z,145656.66
2023-03-27T01:37:09.929Z,145653.06
2023-03-27T01:38:15.935Z,145669.88
2023-03-27T01:39:21.330Z,145638.59
2023-03-27T01:40:36.459Z,145665.09
2023-03-27T01:41:43.162Z,145616.97
2023-03-27T01:42:51.095Z,145630.19
2023-03-27T01:44:00.119Z,145620.59
2023-03-27T01:45:10.886Z,145621.78
2023-03-27T01:46:28.689Z,145643.41
2023-03-27T01:47:41.993Z,145639.81
2023-03-27T01:48:56.248Z,145633.81
2023-03-27T01:50:17.251Z,145624.19
2023-03-27T01:51:34.783Z,145616.97
2023-03-27T01:52:42.209Z,145609.72
2023-03-27T01:53:56.280Z,145625.41
2023-03-27T01:55:05.130Z,145603.72
2023-03-27T01:56:18.487Z,145616.97
2023-03-27T01:57:28.052Z,145604.94
2023-03-27T01:58:36.212Z,145601.31
2023-03-27T01:59:44.732Z,145589.31
2023-03-27T02:00:53.723Z,145590.50
2023-03-27T02:02:06.582Z,145590.50
2023-03-27T02:03:19.175Z,145588.09
2023-03-27T02:04:28.987Z,145590.50
2023-03-27T02:05:36.821Z,145549.59
2023-03-27T02:06:45.223Z,145573.66
2023-03-27T02:08:02.265Z,145554.44
2023-03-27T02:09:14.745Z,145585.72
2023-03-27T02:10:23.741Z,145577.25
2023-03-27T02:11:33.942Z,145583.25
2023-03-27T02:12:43.423Z,145595.31
2023-03-27T02:13:52.683Z,145580.84
2023-03-27T02:15:22.970Z,145582.06
2023-03-27T02:16:28.893Z,145572.44
2023-03-27T02:17:38.669Z,145554.44
2023-03-27T02:18:47.869Z,145556.84
2023-03-27T02:19:58.308Z,145556.84
2023-03-27T02:21:02.638Z,145530.38
2023-03-27T02:22:07.799Z,145514.72
2023-03-27T02:23:23.124Z,145518.31
2023-03-27T02:24:25.680Z,145530.38
2023-03-27T02:25:34.194Z,145564.03
2023-03-27T02:26:36.838Z,145525.56
2023-03-27T02:27:45.716Z,145549.59
2023-03-27T02:28:50.997Z,145521.97
2023-03-27T02:29:56.525Z,145533.97
2023-03-27T02:31:32.764Z,145577.25
2023-03-27T02:32:45.935Z,145574.84
2023-03-27T02:34:14.797Z,145561.66
2023-03-27T02:36:00.419Z,145554.44
2023-03-27T02:37:19.318Z,145539.97
2023-03-27T02:39:14.766Z,145539.97
2023-03-27T02:40:26.401Z,145538.78
2023-03-27T02:41:46.202Z,145537.59
2023-03-27T02:43:09.971Z,145508.72
2023-03-27T02:44:12.501Z,145508.72
2023-03-27T02:45:41.095Z,145552.03
2023-03-27T02:47:17.290Z,145552.03
2023-03-27T02:48:28.210Z,145500.31
2023-03-27T02:49:37.338Z,145548.38
2023-03-27T02:51:04.112Z,145539.97
2023-03-27T02:52:12.497Z,145515.91
2023-03-27T02:53:19.095Z,145494.31
2023-03-27T02:54:39.616Z,145525.56
2023-03-27T02:55:52.103Z,145508.72
2023-03-27T02:57:02.917Z,145487.09
2023-03-27T02:58:45.203Z,145485.84
2023-03-27T03:00:00.738Z,145484.66
2023-03-27T03:01:09.594Z,145483.44
2023-03-27T03:02:33.992Z,145483.44
2023-03-27T03:03:42.878Z,145489.50
2023-03-27T03:05:09.025Z,145500.31
2023-03-27T03:06:15.148Z,145475.06
2023-03-27T03:07:18.671Z,145448.59
2023-03-27T03:08:21.877Z,145442.59
2023-03-27T03:09:25.351Z,145446.19
2023-03-27T03:10:28.106Z,145441.38
2023-03-27T03:11:31.232Z,145437.78
2023-03-27T03:12:33.884Z,145426.97
2023-03-27T03:13:38.315Z,145430.59
2023-03-27T03:14:44.354Z,145434.19
2023-03-27T03:15:48.406Z,145417.34
2023-03-27T03:16:52.718Z,145411.34
2023-03-27T03:17:57.490Z,145410.13
2023-03-27T03:19:00.403Z,145417.34
2023-03-27T03:20:05.193Z,145424.56
2023-03-27T03:21:07.716Z,145419.72
2023-03-27T03:22:10.834Z,145413.72
2023-03-27T03:23:14.438Z,145407.72
2023-03-27T03:24:19.115Z,145402.94
2023-03-27T03:25:21.762Z,145398.13
2023-03-27T03:26:24.771Z,145413.72
2023-03-27T03:27:29.235Z,145388.47
2023-03-27T03:29:00.707Z,145386.09
2023-03-27T03:30:07.619Z,145382.47
2023-03-27T03:31:17.127Z,145381.28
2023-03-27T03:32:20.201Z,145369.28
2023-03-27T03:33:28.062Z,145375.28
2023-03-27T03:34:30.644Z,145375.28
2023-03-27T03:35:35.009Z,145369.28
2023-03-27T03:36:45.080Z,145376.47
2023-03-27T03:37:51.178Z,145369.28
2023-03-27T03:38:54.301Z,145370.47
2023-03-27T03:39:57.178Z,145362.06
2023-03-27T03:41:00.169Z,145364.47
2023-03-27T03:42:03.047Z,145358.47
2023-03-27T03:43:05.930Z,145356.03
2023-03-27T03:44:10.129Z,145368.06
2023-03-27T03:45:14.090Z,145357.28
2023-03-27T03:46:16.673Z,145352.44
2023-03-27T03:47:19.266Z,145350.03
2023-03-27T03:48:23.095Z,145345.22
2023-03-27T03:49:25.862Z,145345.22
2023-03-27T03:50:28.377Z,145340.44
2023-03-27T03:51:31.854Z,145342.81
2023-03-27T03:52:34.387Z,145319.97
2023-03-27T03:53:36.900Z,145315.19
2023-03-27T03:54:40.493Z,145306.78
2023-03-27T03:55:44.215Z,145328.44
2023-03-27T03:56:46.672Z,145317.56
2023-03-27T03:57:50.235Z,145318.78
2023-03-27T03:59:00.909Z,145303.19
2023-03-27T04:00:12.252Z,145326.03
2023-03-27T04:01:26.303Z,145299.59
2023-03-27T04:02:35.087Z,145289.94
2023-03-27T04:03:47.877Z,145289.94
2023-03-27T04:04:50.939Z,145292.38
2023-03-27T04:05:54.428Z,145304.38
2023-03-27T04:06:58.491Z,145289.94
2023-03-27T04:08:09.800Z,145294.78
2023-03-27T04:09:29.221Z,145281.53
2023-03-27T04:10:44.222Z,145275.53
2023-03-27T04:12:06.663Z,145274.34
2023-03-27T04:13:32.241Z,145277.94
2023-03-27T04:14:42.073Z,145285.13
2023-03-27T04:16:04.063Z,145286.34
2023-03-27T04:17:09.904Z,145276.75
2023-03-27T04:18:15.015Z,145280.34
2023-03-27T04:19:20.953Z,145293.59
2023-03-27T04:20:34.737Z,145283.94
2023-03-27T04:21:39.910Z,145289.94
2023-03-27T04:22:46.513Z,145326.03
2023-03-27T04:23:51.310Z,145299.59
2023-03-27T04:25:02.351Z,145299.59
2023-03-27T04:26:05.190Z,145295.97
2023-03-27T04:27:33.810Z,145311.56
2023-03-27T04:28:44.116Z,145362.06
2023-03-27T04:30:10.767Z,145338.03
2023-03-27T04:31:46.715Z,145300.78
2023-03-27T04:33:18.766Z,145304.38
2023-03-27T04:34:33.445Z,145298.38
2023-03-27T04:35:42.581Z,145301.97
2023-03-27T04:36:53.006Z,145297.19
2023-03-27T04:38:01.891Z,145304.38
2023-03-27T04:39:26.484Z,145311.56
2023-03-27T04:40:29.734Z,145365.69
2023-03-27T04:41:32.729Z,145341.63
2023-03-27T04:42:35.149Z,145338.03
2023-03-27T04:43:40.278Z,145326.03
2023-03-27T04:44:46.559Z,145333.22
2023-03-27T04:45:49.410Z,145347.63
2023-03-27T04:46:52.751Z,145344.03
2023-03-27T04:47:55.319Z,145345.22
2023-03-27T04:48:58.060Z,145333.22
2023-03-27T04:50:20.620Z,145330.81
2023-03-27T04:51:23.141Z,145338.03
2023-03-27T04:52:25.666Z,145330.81
2023-03-27T04:53:30.439Z,145315.19
2023-03-27T04:54:34.418Z,145330.81
2023-03-27T04:55:40.543Z,145335.63
2023-03-27T04:56:45.651Z,145326.03
2023-03-27T04:57:48.340Z,145328.44
2023-03-27T04:58:51.004Z,145329.63
2023-03-27T04:59:53.623Z,145330.81
2023-03-27T05:01:19.350Z,145347.63
2023-03-27T05:02:49.327Z,145334.44
2023-03-27T05:04:15.601Z,145326.03
2023-03-27T05:05:39.826Z,145315.19
2023-03-27T05:06:43.069Z,145304.38
2023-03-27T05:07:50.158Z,145328.44
2023-03-27T05:08:56.264Z,145299.59
2023-03-27T05:10:08.291Z,145294.78
2023-03-27T05:11:11.522Z,145301.97
2023-03-27T05:12:17.402Z,145318.78
2023-03-27T05:13:26.295Z,145318.78
2023-03-27T05:14:29.026Z,145323.59
2023-03-27T05:15:33.600Z,145321.19
2023-03-27T05:16:38.213Z,145330.81
2023-03-27T05:17:43.656Z,145340.44
2023-03-27T05:18:46.193Z,145342.81
2023-03-27T05:19:49.433Z,145344.03
2023-03-27T05:20:53.394Z,145338.03
2023-03-27T05:21:55.911Z,145340.44
2023-03-27T05:22:58.912Z,145353.63
2023-03-27T05:24:02.883Z,145362.06
2023-03-27T05:25:05.763Z,145369.28
2023-03-27T05:26:08.276Z,145378.88
2023-03-27T05:27:30.964Z,145384.88
2023-03-27T05:28:34.442Z,145400.53
2023-03-27T05:29:46.938Z,145408.94
2023-03-27T05:30:53.015Z,145435.38
2023-03-27T05:31:58.465Z,145446.19
2023-03-27T05:33:34.081Z,145453.38
2023-03-27T05:34:38.687Z,145471.44
2023-03-27T05:35:48.456Z,145489.50
2023-03-27T05:36:51.606Z,145489.50
2023-03-27T05:37:56.283Z,145518.31
2023-03-27T05:39:04.694Z,145503.91
2023-03-27T05:40:15.244Z,145507.50
2023-03-27T05:41:18.247Z,145515.91
2023-03-27T05:42:23.541Z,145531.56
2023-03-27T05:43:26.544Z,145529.19
2023-03-27T05:44:29.046Z,145530.38
2023-03-27T05:45:32.662Z,145532.78
2023-03-27T05:46:36.517Z,145546.00
2023-03-27T05:47:56.754Z,145568.84
2023-03-27T05:48:59.647Z,145537.59
2023-03-27T05:50:02.537Z,145547.19
2023-03-27T05:51:09.500Z,145573.66
2023-03-27T05:52:12.854Z,145544.78
2023-03-27T05:53:16.529Z,145548.38
2023-03-27T05:54:51.731Z,145564.03
2023-03-27T05:56:03.230Z,145558.03
2023-03-27T05:57:13.977Z,145554.44
2023-03-27T05:58:16.824Z,145573.66
2023-03-27T05:59:20.294Z,145547.19
2023-03-27T06:00:26.294Z,145571.25
2023-03-27T06:01:30.498Z,145566.44
2023-03-27T06:02:34.999Z,145576.06
2023-03-27T06:03:41.371Z,145571.25
2023-03-27T06:04:52.226Z,145565.25
2023-03-27T06:06:08.672Z,145624.19
2023-03-27T06:07:12.747Z,145594.13
2023-03-27T06:08:15.864Z,145592.91
2023-03-27T06:09:19.239Z,145607.31
2023-03-27T06:10:42.392Z,145636.19
2023-03-27T06:11:53.558Z,145616.97
2023-03-27T06:13:00.399Z,145665.09
2023-03-27T06:14:10.827Z,145639.81
2023-03-27T06:15:26.465Z,145657.88
2023-03-27T06:16:50.693Z,145662.69
2023-03-27T06:18:18.150Z,145669.88
2023-03-27T06:19:21.151Z,145680.69
2023-03-27T06:20:27.755Z,145683.16
2023-03-27T06:21:30.272Z,145695.16
2023-03-27T06:22:35.079Z,145692.75
2023-03-27T06:23:39.995Z,145716.84
2023-03-27T06:24:47.449Z,145715.63
2023-03-27T06:25:54.334Z,145722.84
2023-03-27T06:26:59.674Z,145738.47
2023-03-27T06:28:08.212Z,145793.84
2023-03-27T06:29:21.286Z,145798.66
2023-03-27T06:30:27.283Z,145831.16
2023-03-27T06:31:48.518Z,145900.97
2023-03-27T06:32:59.615Z,146035.81
2023-03-27T06:34:02.324Z,146045.50
2023-03-27T06:35:18.463Z,146115.34
2023-03-27T06:36:29.002Z,146178.00
2023-03-27T06:37:36.959Z,146233.47
2023-03-27T06:38:40.133Z,146332.31
2023-03-27T06:39:44.230Z,146411.88
2023-03-27T06:40:47.211Z,146452.84
2023-03-27T06:41:50.741Z,146526.50
2023-03-27T06:43:10.492Z,146647.13
2023-03-27T06:44:23.209Z,146726.81
2023-03-27T06:45:45.541Z,146750.94
2023-03-27T06:47:06.816Z,146498.72
2023-03-27T06:48:21.427Z,146428.78
2023-03-27T06:49:27.298Z,146405.84
2023-03-27T06:50:31.163Z,146530.13
2023-03-27T06:51:34.617Z,146606.13
2023-03-27T06:52:38.353Z,146597.69
2023-03-27T06:54:03.304Z,146829.44
2023-03-27T06:55:08.697Z,146918.81
2023-03-27T06:56:24.781Z,146883.78
2023-03-27T06:57:49.146Z,146787.19
2023-03-27T06:58:54.304Z,146665.25
2023-03-27T07:00:03.691Z,146636.28
2023-03-27T07:01:30.571Z,146491.44
2023-03-27T07:03:00.865Z,146410.66
2023-03-27T07:04:38.584Z,146262.34
2023-03-27T07:06:10.185Z,146225.00
2023-03-27T07:07:21.067Z,146407.06
2023-03-27T07:08:25.517Z,146522.81
2023-03-27T07:09:31.381Z,146795.63
2023-03-27T07:10:38.703Z,146997.31
2023-03-27T07:11:41.344Z,147014.25
2023-03-27T07:12:49.511Z,147239.03
2023-03-27T07:13:53.590Z,147269.25
2023-03-27T07:15:02.354Z,147402.28
2023-03-27T07:16:07.121Z,147514.81
2023-03-27T07:17:09.695Z,147649.19
2023-03-27T07:18:25.993Z,147861.09
2023-03-27T07:19:30.682Z,148128.88
2023-03-27T07:20:41.228Z,148254.97
2023-03-27T07:21:49.157Z,148355.66
2023-03-27T07:22:52.269Z,148274.38
2023-03-27T07:24:23.952Z,148276.81
2023-03-27T07:25:37.754Z,148286.53
2023-03-27T07:26:43.876Z,148293.78
2023-03-27T07:27:58.638Z,148305.91
2023-03-27T07:29:01.153Z,148237.97
2023-03-27T07:30:08.197Z,148291.38
2023-03-27T07:31:29.267Z,148314.38
2023-03-27T07:32:37.890Z,148223.44
2023-03-27T07:33:43.183Z,148415.03
2023-03-27T07:34:46.526Z,148558.28
2023-03-27T07:36:14.478Z,148680.88
2023-03-27T07:37:27.315Z,148883.66
2023-03-27T07:38:47.959Z,148733.03
2023-03-27T07:39:59.720Z,148680.88
2023-03-27T07:41:06.715Z,148695.41
2023-03-27T07:42:27.685Z,148230.69
2023-03-27T07:43:39.208Z,147863.50
2023-03-27T07:44:42.932Z,147523.28
2023-03-27T07:45:45.472Z,147245.13
2023-03-27T07:46:52.068Z,147229.38
2023-03-27T07:47:54.646Z,147257.19
2023-03-27T07:48:57.707Z,147298.28
2023-03-27T07:50:01.689Z,147585.03
2023-03-27T07:52:11.386Z,147767.84
2023-03-27T07:53:34.406Z,147932.59
2023-03-27T07:54:51.818Z,148077.97
2023-03-27T07:55:59.274Z,148039.19
2023-03-27T07:57:03.162Z,147983.44
2023-03-27T07:58:08.790Z,148119.16
2023-03-27T07:59:13.785Z,148246.44
2023-03-27T08:00:17.861Z,148381.09
2023-03-27T08:01:27.940Z,148153.09
2023-03-27T08:02:30.740Z,147985.84
2023-03-27T08:03:33.430Z,148044.03
2023-03-27T08:04:37.001Z,148190.69
2023-03-27T08:05:41.628Z,148162.81
2023-03-27T08:06:46.899Z,148189.50
2023-03-27T08:07:55.181Z,148320.47
2023-03-27T08:09:17.867Z,148400.50
2023-03-27T08:10:21.826Z,148327.75
2023-03-27T08:11:32.631Z,148325.31
2023-03-27T08:12:35.989Z,148347.13
2023-03-27T08:13:39.827Z,148463.59
2023-03-27T08:14:45.739Z,148427.19
2023-03-27T08:16:05.391Z,148373.81
2023-03-27T08:17:15.775Z,148245.22
2023-03-27T08:18:19.509Z,148301.06
2023-03-27T08:19:22.914Z,148252.53
2023-03-27T08:20:30.378Z,148328.97
2023-03-27T08:21:35.273Z,148345.91
2023-03-27T08:22:38.473Z,148407.78
2023-03-27T08:24:19.311Z,148594.69
2023-03-27T08:25:50.751Z,148470.84
2023-03-27T08:26:58.564Z,148475.69
2023-03-27T08:28:04.919Z,148248.84
2023-03-27T08:29:07.435Z,148362.91
2023-03-27T08:30:13.515Z,148502.41
2023-03-27T08:31:16.728Z,148417.50
2023-03-27T08:32:20.637Z,148426.00
2023-03-27T08:33:27.612Z,148508.47
2023-03-27T08:34:30.862Z,148077.97
2023-03-27T08:35:33.747Z,147930.16
2023-03-27T08:36:38.423Z,147998.00
2023-03-27T08:37:41.828Z,148110.69
2023-03-27T08:39:05.048Z,148284.06
2023-03-27T08:40:26.284Z,148368.97
2023-03-27T08:41:55.255Z,148305.91
2023-03-27T08:43:20.284Z,148256.16
2023-03-27T08:44:26.833Z,148297.44
2023-03-27T08:45:43.088Z,148279.22
2023-03-27T08:46:54.996Z,148398.09
2023-03-27T08:48:11.290Z,148541.22
2023-03-27T08:49:19.330Z,148644.41
2023-03-27T08:51:05.665Z,148517.00
2023-03-27T08:52:14.682Z,148869.06
2023-03-27T08:53:41.217Z,148679.66
2023-03-27T08:54:53.653Z,148381.09
2023-03-27T08:56:05.057Z,148436.91
2023-03-27T08:57:28.362Z,148333.81
2023-03-27T08:58:36.139Z,148081.59
2023-03-27T09:00:10.109Z,147798.09
2023-03-27T09:01:26.546Z,147813.81
2023-03-27T09:02:50.095Z,147862.28
2023-03-27T09:04:12.881Z,148025.88
2023-03-27T09:05:26.304Z,148167.66
2023-03-27T09:06:44.906Z,147905.88
2023-03-27T09:08:32.673Z,147656.44
2023-03-27T09:09:47.796Z,147083.09
2023-03-27T09:11:16.473Z,146786.00
2023-03-27T09:12:42.396Z,146670.09
2023-03-27T09:13:48.510Z,146653.16
2023-03-27T09:15:00.641Z,146875.31
2023-03-27T09:16:08.265Z,147213.69
2023-03-27T09:17:34.265Z,147537.81
2023-03-27T09:18:52.598Z,147719.38
2023-03-27T09:20:10.728Z,148094.94
2023-03-27T09:21:23.192Z,148153.09
2023-03-27T09:22:31.488Z,148280.44
2023-03-27T09:23:57.881Z,148417.50
2023-03-27T09:25:38.196Z,148609.22
2023-03-27T09:27:06.642Z,148691.78
2023-03-27T09:28:35.916Z,148767.03
2023-03-27T09:29:42.058Z,148870.28
2023-03-27T09:31:34.613Z,148880.03
2023-03-27T09:32:41.958Z,148844.81
2023-03-27T09:33:44.918Z,148903.06
2023-03-27T09:34:48.198Z,149115.75
2023-03-27T09:35:50.725Z,149131.53
2023-03-27T09:36:54.522Z,149180.19
2023-03-27T09:38:01.360Z,149226.34
2023-03-27T09:39:08.105Z,149175.31
2023-03-27T09:40:44.479Z,148958.97
2023-03-27T09:41:51.285Z,149074.41
2023-03-27T09:42:54.778Z,149159.50
2023-03-27T09:44:10.609Z,149338.28
2023-03-27T09:45:16.617Z,149412.44
2023-03-27T09:46:44.054Z,149639.97
2023-03-27T09:48:02.987Z,149754.34
2023-03-27T09:49:19.516Z,149610.78
2023-03-27T09:50:41.497Z,149661.91
2023-03-27T09:51:52.128Z,149165.56
2023-03-27T09:53:23.050Z,148973.56
2023-03-27T09:54:58.376Z,149002.69
2023-03-27T09:56:16.297Z,148842.41
2023-03-27T09:57:35.827Z,148604.38
2023-03-27T09:58:44.172Z,148358.06
2023-03-27T10:00:00.230Z,148503.63
2023-03-27T10:01:14.211Z,148754.91
2023-03-27T10:02:23.357Z,148791.31
2023-03-27T10:03:28.847Z,148881.25
2023-03-27T10:04:34.409Z,148974.78
2023-03-27T10:05:38.965Z,149039.19
2023-03-27T10:06:48.200Z,149010.00
2023-03-27T10:08:27.310Z,149053.75
2023-03-27T10:10:05.590Z,149068.28
2023-03-27T10:11:20.593Z,148903.06
2023-03-27T10:12:25.988Z,149044.03
2023-03-27T10:13:30.917Z,149031.84
2023-03-27T10:14:42.313Z,148869.06
2023-03-27T10:15:48.188Z,148767.03
2023-03-27T10:16:58.927Z,148699.06
2023-03-27T10:18:04.956Z,148644.41
2023-03-27T10:19:41.473Z,148247.66
2023-03-27T10:20:52.284Z,147970.13
2023-03-27T10:22:03.441Z,147794.44
2023-03-27T10:23:22.946Z,147632.25
2023-03-27T10:24:34.042Z,147861.09
2023-03-27T10:25:39.437Z,148039.19
2023-03-27T10:26:58.999Z,148014.94
2023-03-27T10:28:29.146Z,147809.00
2023-03-27T10:29:50.365Z,147637.09
2023-03-27T10:31:01.518Z,147635.88
2023-03-27T10:32:11.620Z,147551.16
2023-03-27T10:33:29.857Z,147587.44
2023-03-27T10:34:57.469Z,147494.22
2023-03-27T10:36:39.628Z,147397.44
2023-03-27T10:37:51.526Z,147350.31
2023-03-27T10:39:07.452Z,147229.38
2023-03-27T10:40:24.568Z,147162.91
2023-03-27T10:41:35.009Z,147150.81
2023-03-27T10:42:40.050Z,147119.41
2023-03-27T10:43:48.457Z,147162.91
2023-03-27T10:44:54.584Z,147097.59
2023-03-27T10:46:05.082Z,147269.25
2023-03-27T10:47:20.846Z,147554.78
2023-03-27T10:48:33.811Z,147712.13
2023-03-27T10:49:46.410Z,147687.91
2023-03-27T10:51:06.697Z,147783.56
2023-03-27T10:52:35.975Z,147765.41
2023-03-27T10:53:56.684Z,147732.72
2023-03-27T10:55:33.217Z,147639.50
2023-03-27T10:56:47.996Z,147494.22
2023-03-27T10:57:57.595Z,147305.53
2023-03-27T10:59:23.383Z,147090.34
2023-03-27T11:00:41.163Z,146903.09
2023-03-27T11:01:49.831Z,146913.94
2023-03-27T11:03:23.417Z,146947.75
2023-03-27T11:04:45.579Z,146899.47
2023-03-27T11:05:53.862Z,147176.22
2023-03-27T11:07:27.611Z,147552.38
2023-03-27T11:08:39.220Z,147979.81
2023-03-27T11:09:56.151Z,148237.97
2023-03-27T11:11:21.828Z,148473.28
2023-03-27T11:12:31.062Z,148567.97
2023-03-27T11:13:41.025Z,148796.19
2023-03-27T11:14:54.113Z,149030.63
2023-03-27T11:16:23.794Z,149112.13
2023-03-27T11:18:03.154Z,148888.53
2023-03-27T11:19:31.577Z,148655.38
2023-03-27T11:21:17.746Z,148694.19
2023-03-27T11:22:38.513Z,148835.06
2023-03-27T11:23:48.596Z,148708.75
2023-03-27T11:25:19.907Z,149002.69
2023-03-27T11:26:30.606Z,149023.34
2023-03-27T11:27:48.243Z,148689.34
2023-03-27T11:28:54.121Z,148798.59
2023-03-27T11:30:23.278Z,149041.59
2023-03-27T11:31:44.239Z,148922.53
2023-03-27T11:33:05.233Z,148648.09
2023-03-27T11:35:04.391Z,148493.91
2023-03-27T11:36:37.917Z,148339.88
2023-03-27T11:38:06.363Z,148208.84
2023-03-27T11:39:33.240Z,147891.31
2023-03-27T11:40:42.244Z,147726.63
2023-03-27T11:41:50.586Z,147431.31
2023-03-27T11:42:53.436Z,147255.97
2023-03-27T11:43:57.728Z,147225.75
2023-03-27T11:45:25.688Z,147225.75
2023-03-27T11:47:07.566Z,147150.81
2023-03-27T11:48:48.614Z,147090.34
2023-03-27T11:49:59.768Z,147062.56
2023-03-27T11:51:26.771Z,147057.72
2023-03-27T11:52:33.492Z,146947.75
2023-03-27T11:53:52.096Z,146893.44
2023-03-27T11:55:38.777Z,146872.88
2023-03-27T11:57:01.261Z,146956.25
2023-03-27T11:59:18.994Z,147507.56
2023-03-27T12:00:49.096Z,147993.16
2023-03-27T12:02:01.169Z,148335.00
2023-03-27T12:03:12.467Z,148367.75
2023-03-27T12:04:28.462Z,148603.16
2023-03-27T12:06:07.484Z,148912.84
2023-03-27T12:07:34.001Z,149074.41
2023-03-27T12:09:02.195Z,149174.09
2023-03-27T12:10:12.861Z,149219.06
2023-03-27T12:11:43.462Z,149481.75
2023-03-27T12:12:45.865Z,149506.09
2023-03-27T12:14:17.323Z,149540.16
2023-03-27T12:15:53.341Z,148733.03
2023-03-27T12:17:29.382Z,148236.75
2023-03-27T12:19:03.750Z,147861.09
2023-03-27T12:20:58.950Z,147692.75
2023-03-27T12:22:38.678Z,147909.50
2023-03-27T12:23:56.441Z,148002.84
2023-03-27T12:25:25.714Z,148372.59
2023-03-27T12:27:10.475Z,148747.63
2023-03-27T12:28:42.756Z,148575.25
2023-03-27T12:29:55.954Z,148442.94
2023-03-27T12:31:17.968Z,148332.59
2023-03-27T12:32:32.213Z,147871.97
2023-03-27T12:33:50.081Z,147666.16
2023-03-27T12:35:00.775Z,147397.44
2023-03-27T12:36:16.956Z,147219.72
2023-03-27T12:37:31.071Z,147075.81
2023-03-27T12:38:41.092Z,146959.88
2023-03-27T12:39:53.680Z,146863.25
2023-03-27T12:41:22.537Z,146786.00
2023-03-27T12:42:51.925Z,146765.44
2023-03-27T12:44:00.887Z,146771.47
2023-03-27T12:45:24.794Z,146766.66
2023-03-27T12:46:29.725Z,146688.22
2023-03-27T12:47:32.224Z,146773.88
2023-03-27T12:49:06.561Z,147073.41
2023-03-27T12:50:27.412Z,147310.41
2023-03-27T12:51:47.520Z,147535.41
2023-03-27T12:53:04.850Z,147713.34
2023-03-27T12:54:18.891Z,147891.31
2023-03-27T12:55:21.292Z,148084.00
2023-03-27T12:56:32.266Z,148199.19
2023-03-27T12:57:46.823Z,148189.50
2023-03-27T12:58:55.516Z,148336.22
2023-03-27T13:00:01.490Z,148441.75
2023-03-27T13:01:09.375Z,148583.78
2023-03-27T13:02:47.530Z,148790.13
2023-03-27T13:04:02.111Z,148532.75
2023-03-27T13:05:36.307Z,148233.13
2023-03-27T13:07:05.241Z,148130.09
2023-03-27T13:08:34.377Z,147879.22
2023-03-27T13:10:04.273Z,147871.97
2023-03-27T13:11:13.265Z,147719.38
2023-03-27T13:12:21.663Z,147674.59
2023-03-27T13:13:48.321Z,147658.84
2023-03-27T13:15:12.433Z,147864.72
2023-03-27T13:16:52.268Z,148046.44
2023-03-27T13:18:18.196Z,148188.28
2023-03-27T13:19:36.330Z,148241.59
2023-03-27T13:21:14.973Z,148390.81
2023-03-27T13:22:37.033Z,148483.03
2023-03-27T13:23:45.432Z,148287.75
2023-03-27T13:25:21.795Z,148097.38
2023-03-27T13:26:35.478Z,147857.41
2023-03-27T13:28:00.183Z,147732.72
2023-03-27T13:29:03.196Z,147620.13
2023-03-27T13:30:07.565Z,147564.44
2023-03-27T13:31:45.608Z,147457.94
2023-03-27T13:33:31.413Z,147402.28
2023-03-27T13:34:37.579Z,147391.41
2023-03-27T13:36:04.417Z,147378.13
2023-03-27T13:37:20.385Z,147327.31
2023-03-27T13:38:55.282Z,147364.78
2023-03-27T13:40:02.238Z,147425.28
2023-03-27T13:41:45.029Z,147593.50
2023-03-27T13:43:26.845Z,147772.66
2023-03-27T13:45:18.814Z,147921.59
2023-03-27T13:46:52.672Z,147936.22
2023-03-27T13:48:40.531Z,148002.84
2023-03-27T13:50:08.287Z,148034.34
2023-03-27T13:51:46.784Z,147981.03
2023-03-27T13:53:09.461Z,147968.94
2023-03-27T13:54:38.619Z,148053.72
2023-03-27T13:55:48.578Z,148067.06
2023-03-27T13:57:41.614Z,147960.44
2023-03-27T13:58:49.298Z,147817.44